sensor_id;sensor_type;location;lat;lon;timestamp;pressure;altitude;pressure_sealevel;temperature
76394;BMP180;65216;51.090;-115.352;2023-02-28T00:01:32;85348.60;;;21.50
76394;BMP180;65216;51.090;-115.352;2023-02-28T00:04:00;85366.20;;;21.50
76394;BMP180;65216;51.090;-115.352;2023-02-28T00:06:27;85349.20;;;21.50
76394;BMP180;65216;51.090;-115.352;2023-02-28T00:08:58;85350.40;;;21.50
76394;BMP180;65216;51.090;-115.352;2023-02-28T00:11:26;85339.80;;;21.50
76394;BMP180;65216;51.090;-115.352;2023-02-28T00:13:53;85347.80;;;21.50
76394;BMP180;65216;51.090;-115.352;2023-02-28T00:16:22;85344.80;;;21.50
76394;BMP180;65216;51.090;-115.352;2023-02-28T00:18:50;85340.80;;;21.50
76394;BMP180;65216;51.090;-115.352;2023-02-28T00:21:19;85347.40;;;21.50
76394;BMP180;65216;51.090;-115.352;2023-02-28T00:23:47;85349.20;;;21.50
76394;BMP180;65216;51.090;-115.352;2023-02-28T00:26:17;85338.80;;;21.50
76394;BMP180;65216;51.090;-115.352;2023-02-28T00:28:44;85344.60;;;21.50
76394;BMP180;65216;51.090;-115.352;2023-02-28T00:31:12;85364.00;;;21.50
76394;BMP180;65216;51.090;-115.352;2023-02-28T00:33:39;85359.40;;;21.50
76394;BMP180;65216;51.090;-115.352;2023-02-28T00:36:10;85359.00;;;21.50
76394;BMP180;65216;51.090;-115.352;2023-02-28T00:38:39;85354.20;;;21.50
76394;BMP180;65216;51.090;-115.352;2023-02-28T00:41:07;85341.00;;;21.50
76394;BMP180;65216;51.090;-115.352;2023-02-28T00:43:39;85344.60;;;21.50
76394;BMP180;65216;51.090;-115.352;2023-02-28T00:46:07;85336.60;;;21.50
76394;BMP180;65216;51.090;-115.352;2023-02-28T00:48:35;85357.00;;;21.50
76394;BMP180;65216;51.090;-115.352;2023-02-28T00:51:06;85343.60;;;21.50
76394;BMP180;65216;51.090;-115.352;2023-02-28T00:53:33;85351.40;;;21.50
76394;BMP180;65216;51.090;-115.352;2023-02-28T00:56:04;85362.00;;;21.50
76394;BMP180;65216;51.090;-115.352;2023-02-28T00:58:31;85348.20;;;21.44
76394;BMP180;65216;51.090;-115.352;2023-02-28T01:00:59;85345.80;;;21.40
76394;BMP180;65216;51.090;-115.352;2023-02-28T01:03:26;85350.60;;;21.40
76394;BMP180;65216;51.090;-115.352;2023-02-28T01:05:53;85344.20;;;21.40
76394;BMP180;65216;51.090;-115.352;2023-02-28T01:08:21;85351.40;;;21.40
76394;BMP180;65216;51.090;-115.352;2023-02-28T01:10:49;85344.80;;;21.40
76394;BMP180;65216;51.090;-115.352;2023-02-28T01:13:17;85355.40;;;21.40
76394;BMP180;65216;51.090;-115.352;2023-02-28T01:15:54;85358.80;;;21.40
76394;BMP180;65216;51.090;-115.352;2023-02-28T01:18:22;85369.20;;;21.40
76394;BMP180;65216;51.090;-115.352;2023-02-28T01:20:55;85354.20;;;21.40
76394;BMP180;65216;51.090;-115.352;2023-02-28T01:23:23;85360.40;;;21.40
76394;BMP180;65216;51.090;-115.352;2023-02-28T01:25:51;85356.80;;;21.40
76394;BMP180;65216;51.090;-115.352;2023-02-28T01:28:22;85368.40;;;21.32
76394;BMP180;65216;51.090;-115.352;2023-02-28T01:30:52;85367.00;;;21.30
76394;BMP180;65216;51.090;-115.352;2023-02-28T01:33:22;85384.60;;;21.30
76394;BMP180;65216;51.090;-115.352;2023-02-28T01:35:49;85363.60;;;21.30
76394;BMP180;65216;51.090;-115.352;2023-02-28T01:38:17;85375.60;;;21.30
76394;BMP180;65216;51.090;-115.352;2023-02-28T01:40:44;85357.20;;;21.30
76394;BMP180;65216;51.090;-115.352;2023-02-28T01:43:26;85345.40;;;21.30
76394;BMP180;65216;51.090;-115.352;2023-02-28T01:45:56;85353.40;;;21.30
76394;BMP180;65216;51.090;-115.352;2023-02-28T01:48:32;85360.20;;;21.30
76394;BMP180;65216;51.090;-115.352;2023-02-28T01:51:08;85360.20;;;21.22
76394;BMP180;65216;51.090;-115.352;2023-02-28T01:53:45;85355.80;;;21.20
76394;BMP180;65216;51.090;-115.352;2023-02-28T01:56:24;85355.60;;;21.20
76394;BMP180;65216;51.090;-115.352;2023-02-28T01:58:54;85352.80;;;21.20
76394;BMP180;65216;51.090;-115.352;2023-02-28T02:01:27;85344.20;;;21.20
76394;BMP180;65216;51.090;-115.352;2023-02-28T02:04:02;85344.40;;;21.20
76394;BMP180;65216;51.090;-115.352;2023-02-28T02:06:44;85346.60;;;21.20
76394;BMP180;65216;51.090;-115.352;2023-02-28T02:09:15;85337.60;;;21.20
76394;BMP180;65216;51.090;-115.352;2023-02-28T02:11:45;85358.60;;;21.20
76394;BMP180;65216;51.090;-115.352;2023-02-28T02:14:55;85352.60;;;21.20
76394;BMP180;65216;51.090;-115.352;2023-02-28T02:17:42;85346.40;;;21.18
76394;BMP180;65216;51.090;-115.352;2023-02-28T02:25:49;85357.00;;;21.12
76394;BMP180;65216;51.090;-115.352;2023-02-28T02:32:22;85329.60;;;21.10
76394;BMP180;65216;51.090;-115.352;2023-02-28T02:41:48;85317.80;;;21.10
76394;BMP180;65216;51.090;-115.352;2023-02-28T02:44:48;85324.00;;;21.00
76394;BMP180;65216;51.090;-115.352;2023-02-28T02:47:21;85313.40;;;21.00
76394;BMP180;65216;51.090;-115.352;2023-02-28T02:49:58;85329.40;;;21.00
76394;BMP180;65216;51.090;-115.352;2023-02-28T02:52:38;85316.60;;;21.00
76394;BMP180;65216;51.090;-115.352;2023-02-28T02:55:12;85312.80;;;21.00
76394;BMP180;65216;51.090;-115.352;2023-02-28T02:58:08;85306.40;;;21.00
76394;BMP180;65216;51.090;-115.352;2023-02-28T03:00:47;85326.00;;;21.00
76394;BMP180;65216;51.090;-115.352;2023-02-28T03:03:21;85326.80;;;21.00
76394;BMP180;65216;51.090;-115.352;2023-02-28T03:06:02;85309.20;;;21.00
76394;BMP180;65216;51.090;-115.352;2023-02-28T03:08:36;85305.40;;;21.00
76394;BMP180;65216;51.090;-115.352;2023-02-28T03:11:11;85311.00;;;21.00
76394;BMP180;65216;51.090;-115.352;2023-02-28T03:23:02;85315.80;;;21.00
76394;BMP180;65216;51.090;-115.352;2023-02-28T03:25:45;85309.00;;;20.98
76394;BMP180;65216;51.090;-115.352;2023-02-28T03:31:27;85292.40;;;20.90
76394;BMP180;65216;51.090;-115.352;2023-02-28T03:34:29;85289.40;;;20.90
76394;BMP180;65216;51.090;-115.352;2023-02-28T03:37:14;85300.00;;;20.90
76394;BMP180;65216;51.090;-115.352;2023-02-28T03:39:58;85300.00;;;20.90
76394;BMP180;65216;51.090;-115.352;2023-02-28T03:42:35;85283.40;;;20.90
76394;BMP180;65216;51.090;-115.352;2023-02-28T03:45:21;85279.40;;;20.90
76394;BMP180;65216;51.090;-115.352;2023-02-28T03:47:53;85274.80;;;20.84
76394;BMP180;65216;51.090;-115.352;2023-02-28T03:50:41;85281.00;;;20.80
76394;BMP180;65216;51.090;-115.352;2023-02-28T03:53:42;85276.40;;;20.80
76394;BMP180;65216;51.090;-115.352;2023-02-28T03:56:22;85280.60;;;20.80
76394;BMP180;65216;51.090;-115.352;2023-02-28T04:01:58;85273.80;;;20.80
76394;BMP180;65216;51.090;-115.352;2023-02-28T04:04:26;85273.40;;;20.80
76394;BMP180;65216;51.090;-115.352;2023-02-28T04:07:04;85276.40;;;20.78
76394;BMP180;65216;51.090;-115.352;2023-02-28T04:09:35;85284.40;;;20.80
76394;BMP180;65216;51.090;-115.352;2023-02-28T04:12:03;85278.20;;;20.80
76394;BMP180;65216;51.090;-115.352;2023-02-28T04:14:30;85280.60;;;20.76
76394;BMP180;65216;51.090;-115.352;2023-02-28T04:17:00;85285.20;;;20.70
76394;BMP180;65216;51.090;-115.352;2023-02-28T04:19:28;85282.40;;;20.70
76394;BMP180;65216;51.090;-115.352;2023-02-28T04:21:55;85270.40;;;20.70
76394;BMP180;65216;51.090;-115.352;2023-02-28T04:24:26;85268.20;;;20.70
76394;BMP180;65216;51.090;-115.352;2023-02-28T04:26:58;85274.60;;;20.70
76394;BMP180;65216;51.090;-115.352;2023-02-28T04:29:30;85271.20;;;20.70
76394;BMP180;65216;51.090;-115.352;2023-02-28T04:32:04;85283.00;;;20.70
76394;BMP180;65216;51.090;-115.352;2023-02-28T04:34:32;85276.40;;;20.70
76394;BMP180;65216;51.090;-115.352;2023-02-28T04:37:00;85273.80;;;20.70
76394;BMP180;65216;51.090;-115.352;2023-02-28T04:39:27;85267.60;;;20.68
76394;BMP180;65216;51.090;-115.352;2023-02-28T04:41:58;85278.60;;;20.64
76394;BMP180;65216;51.090;-115.352;2023-02-28T04:44:27;85279.00;;;20.60
76394;BMP180;65216;51.090;-115.352;2023-02-28T04:46:54;85274.00;;;20.60
76394;BMP180;65216;51.090;-115.352;2023-02-28T04:49:25;85272.60;;;20.60
76394;BMP180;65216;51.090;-115.352;2023-02-28T04:52:25;85269.20;;;20.60
76394;BMP180;65216;51.090;-115.352;2023-02-28T04:54:56;85272.80;;;20.60
76394;BMP180;65216;51.090;-115.352;2023-02-28T04:57:26;85273.00;;;20.60
76394;BMP180;65216;51.090;-115.352;2023-02-28T04:59:54;85274.40;;;20.60
76394;BMP180;65216;51.090;-115.352;2023-02-28T05:02:21;85271.60;;;20.58
76394;BMP180;65216;51.090;-115.352;2023-02-28T05:04:57;85271.40;;;20.56
76394;BMP180;65216;51.090;-115.352;2023-02-28T05:07:24;85278.00;;;20.50
76394;BMP180;65216;51.090;-115.352;2023-02-28T05:09:55;85279.40;;;20.52
76394;BMP180;65216;51.090;-115.352;2023-02-28T05:12:22;85279.00;;;20.50
76394;BMP180;65216;51.090;-115.352;2023-02-28T05:14:49;85275.80;;;20.50
76394;BMP180;65216;51.090;-115.352;2023-02-28T05:17:19;85268.20;;;20.50
76394;BMP180;65216;51.090;-115.352;2023-02-28T05:19:49;85266.40;;;20.50
76394;BMP180;65216;51.090;-115.352;2023-02-28T05:22:17;85267.60;;;20.50
76394;BMP180;65216;51.090;-115.352;2023-02-28T05:24:44;85269.00;;;20.50
76394;BMP180;65216;51.090;-115.352;2023-02-28T05:27:14;85274.80;;;20.50
76394;BMP180;65216;51.090;-115.352;2023-02-28T05:29:41;85276.40;;;20.50
76394;BMP180;65216;51.090;-115.352;2023-02-28T05:32:14;85272.80;;;20.50
76394;BMP180;65216;51.090;-115.352;2023-02-28T05:34:45;85270.40;;;20.50
76394;BMP180;65216;51.090;-115.352;2023-02-28T05:37:19;85274.80;;;20.50
76394;BMP180;65216;51.090;-115.352;2023-02-28T05:39:46;85275.00;;;20.44
76394;BMP180;65216;51.090;-115.352;2023-02-28T05:42:17;85274.20;;;20.46
76394;BMP180;65216;51.090;-115.352;2023-02-28T05:44:44;85278.80;;;20.40
76394;BMP180;65216;51.090;-115.352;2023-02-28T05:47:11;85277.20;;;20.40
76394;BMP180;65216;51.090;-115.352;2023-02-28T05:49:45;85274.60;;;20.40
76394;BMP180;65216;51.090;-115.352;2023-02-28T05:52:12;85273.80;;;20.40
76394;BMP180;65216;51.090;-115.352;2023-02-28T05:54:40;85273.40;;;20.40
76394;BMP180;65216;51.090;-115.352;2023-02-28T05:57:10;85276.40;;;20.40
76394;BMP180;65216;51.090;-115.352;2023-02-28T05:59:39;85277.80;;;20.40
76394;BMP180;65216;51.090;-115.352;2023-02-28T06:02:15;85275.20;;;20.40
76394;BMP180;65216;51.090;-115.352;2023-02-28T06:04:45;85276.40;;;20.40
76394;BMP180;65216;51.090;-115.352;2023-02-28T06:07:15;85271.40;;;20.38
76394;BMP180;65216;51.090;-115.352;2023-02-28T06:09:46;85271.60;;;20.34
76394;BMP180;65216;51.090;-115.352;2023-02-28T06:12:14;85270.40;;;20.40
76394;BMP180;65216;51.090;-115.352;2023-02-28T06:14:42;85270.60;;;20.38
76394;BMP180;65216;51.090;-115.352;2023-02-28T06:17:09;85268.00;;;20.30
76394;BMP180;65216;51.090;-115.352;2023-02-28T06:19:40;85266.20;;;20.30
76394;BMP180;65216;51.090;-115.352;2023-02-28T06:22:10;85265.40;;;20.30
76394;BMP180;65216;51.090;-115.352;2023-02-28T06:24:37;85260.80;;;20.30
76394;BMP180;65216;51.090;-115.352;2023-02-28T06:27:05;85263.40;;;20.30
76394;BMP180;65216;51.090;-115.352;2023-02-28T06:29:34;85262.20;;;20.30
76394;BMP180;65216;51.090;-115.352;2023-02-28T06:32:02;85261.80;;;20.30
76394;BMP180;65216;51.090;-115.352;2023-02-28T06:34:29;85259.40;;;20.30
76394;BMP180;65216;51.090;-115.352;2023-02-28T06:36:57;85259.00;;;20.30
76394;BMP180;65216;51.090;-115.352;2023-02-28T06:39:30;85261.00;;;20.26
76394;BMP180;65216;51.090;-115.352;2023-02-28T06:41:57;85258.60;;;20.20
76394;BMP180;65216;51.090;-115.352;2023-02-28T06:44:24;85260.80;;;20.20
76394;BMP180;65216;51.090;-115.352;2023-02-28T06:46:52;85257.60;;;20.20
76394;BMP180;65216;51.090;-115.352;2023-02-28T06:49:19;85258.60;;;20.20
76394;BMP180;65216;51.090;-115.352;2023-02-28T06:51:47;85259.00;;;20.20
76394;BMP180;65216;51.090;-115.352;2023-02-28T06:54:14;85255.80;;;20.20
76394;BMP180;65216;51.090;-115.352;2023-02-28T06:56:42;85255.60;;;20.20
76394;BMP180;65216;51.090;-115.352;2023-02-28T06:59:23;85254.60;;;20.20
76394;BMP180;65216;51.090;-115.352;2023-02-28T07:01:50;85256.00;;;20.20
76394;BMP180;65216;51.090;-115.352;2023-02-28T07:04:18;85261.20;;;20.20
76394;BMP180;65216;51.090;-115.352;2023-02-28T07:06:51;85255.80;;;20.20
76394;BMP180;65216;51.090;-115.352;2023-02-28T07:09:29;85257.40;;;20.20
76394;BMP180;65216;51.090;-115.352;2023-02-28T07:12:00;85254.20;;;20.20
76394;BMP180;65216;51.090;-115.352;2023-02-28T07:14:28;85253.00;;;20.18
76394;BMP180;65216;51.090;-115.352;2023-02-28T07:16:58;85252.60;;;20.16
76394;BMP180;65216;51.090;-115.352;2023-02-28T07:19:28;85252.00;;;20.18
76394;BMP180;65216;51.090;-115.352;2023-02-28T07:22:01;85250.40;;;20.16
76394;BMP180;65216;51.090;-115.352;2023-02-28T07:24:34;85250.60;;;20.20
76394;BMP180;65216;51.090;-115.352;2023-02-28T07:27:01;85249.60;;;20.12
76394;BMP180;65216;51.090;-115.352;2023-02-28T07:29:30;85247.40;;;20.12
76394;BMP180;65216;51.090;-115.352;2023-02-28T07:32:08;85248.40;;;20.10
76394;BMP180;65216;51.090;-115.352;2023-02-28T07:34:39;85246.40;;;20.10
76394;BMP180;65216;51.090;-115.352;2023-02-28T07:37:09;85244.40;;;20.10
76394;BMP180;65216;51.090;-115.352;2023-02-28T07:39:39;85243.20;;;20.10
76394;BMP180;65216;51.090;-115.352;2023-02-28T07:42:09;85243.80;;;20.10
76394;BMP180;65216;51.090;-115.352;2023-02-28T07:44:40;85239.00;;;20.10
76394;BMP180;65216;51.090;-115.352;2023-02-28T07:47:10;85241.20;;;20.10
76394;BMP180;65216;51.090;-115.352;2023-02-28T07:50:08;85239.20;;;20.10
76394;BMP180;65216;51.090;-115.352;2023-02-28T07:52:37;85237.80;;;20.10
76394;BMP180;65216;51.090;-115.352;2023-02-28T07:55:08;85235.60;;;20.10
76394;BMP180;65216;51.090;-115.352;2023-02-28T07:57:37;85238.20;;;20.10
76394;BMP180;65216;51.090;-115.352;2023-02-28T08:00:08;85234.00;;;20.08
76394;BMP180;65216;51.090;-115.352;2023-02-28T08:02:40;85233.60;;;20.00
76394;BMP180;65216;51.090;-115.352;2023-02-28T08:05:11;85234.00;;;20.00
76394;BMP180;65216;51.090;-115.352;2023-02-28T08:07:38;85230.40;;;20.00
76394;BMP180;65216;51.090;-115.352;2023-02-28T08:10:09;85229.40;;;20.00
76394;BMP180;65216;51.090;-115.352;2023-02-28T08:12:39;85231.40;;;20.00
76394;BMP180;65216;51.090;-115.352;2023-02-28T08:15:07;85233.00;;;20.00
76394;BMP180;65216;51.090;-115.352;2023-02-28T08:17:37;85233.00;;;20.00
76394;BMP180;65216;51.090;-115.352;2023-02-28T08:20:06;85229.00;;;20.00
76394;BMP180;65216;51.090;-115.352;2023-02-28T08:22:35;85234.00;;;20.00
76394;BMP180;65216;51.090;-115.352;2023-02-28T08:25:06;85228.40;;;20.00
76394;BMP180;65216;51.090;-115.352;2023-02-28T08:27:34;85226.40;;;20.00
76394;BMP180;65216;51.090;-115.352;2023-02-28T08:30:05;85225.60;;;20.00
76394;BMP180;65216;51.090;-115.352;2023-02-28T08:32:34;85220.40;;;20.00
76394;BMP180;65216;51.090;-115.352;2023-02-28T08:35:07;85222.80;;;20.00
76394;BMP180;65216;51.090;-115.352;2023-02-28T08:37:35;85221.60;;;20.00
76394;BMP180;65216;51.090;-115.352;2023-02-28T08:40:04;85220.80;;;20.00
76394;BMP180;65216;51.090;-115.352;2023-02-28T08:42:33;85215.40;;;20.00
76394;BMP180;65216;51.090;-115.352;2023-02-28T08:45:00;85215.60;;;20.00
76394;BMP180;65216;51.090;-115.352;2023-02-28T08:47:27;85214.20;;;20.00
76394;BMP180;65216;51.090;-115.352;2023-02-28T08:49:55;85216.80;;;20.00
76394;BMP180;65216;51.090;-115.352;2023-02-28T08:52:22;85215.20;;;20.00
76394;BMP180;65216;51.090;-115.352;2023-02-28T08:54:49;85217.40;;;19.94
76394;BMP180;65216;51.090;-115.352;2023-02-28T08:57:17;85211.80;;;19.90
76394;BMP180;65216;51.090;-115.352;2023-02-28T08:59:47;85212.80;;;19.90
76394;BMP180;65216;51.090;-115.352;2023-02-28T09:02:15;85206.80;;;19.90
76394;BMP180;65216;51.090;-115.352;2023-02-28T09:04:45;85201.60;;;19.90
76394;BMP180;65216;51.090;-115.352;2023-02-28T09:07:12;85205.60;;;19.90
76394;BMP180;65216;51.090;-115.352;2023-02-28T09:09:40;85201.00;;;19.90
76394;BMP180;65216;51.090;-115.352;2023-02-28T09:12:24;85202.20;;;19.90
76394;BMP180;65216;51.090;-115.352;2023-02-28T09:14:55;85203.40;;;19.90
76394;BMP180;65216;51.090;-115.352;2023-02-28T09:17:22;85202.40;;;19.90
76394;BMP180;65216;51.090;-115.352;2023-02-28T09:19:49;85201.20;;;19.90
76394;BMP180;65216;51.090;-115.352;2023-02-28T09:22:20;85198.00;;;19.90
76394;BMP180;65216;51.090;-115.352;2023-02-28T09:24:48;85198.20;;;19.90
76394;BMP180;65216;51.090;-115.352;2023-02-28T09:27:15;85193.80;;;19.90
76394;BMP180;65216;51.090;-115.352;2023-02-28T09:29:42;85194.00;;;19.90
76394;BMP180;65216;51.090;-115.352;2023-02-28T09:32:10;85195.00;;;19.90
76394;BMP180;65216;51.090;-115.352;2023-02-28T09:34:38;85193.20;;;19.90
76394;BMP180;65216;51.090;-115.352;2023-02-28T09:37:05;85188.00;;;19.90
76394;BMP180;65216;51.090;-115.352;2023-02-28T09:39:33;85187.20;;;19.90
76394;BMP180;65216;51.090;-115.352;2023-02-28T09:42:02;85184.60;;;19.82
76394;BMP180;65216;51.090;-115.352;2023-02-28T09:44:56;85181.00;;;19.88
76394;BMP180;65216;51.090;-115.352;2023-02-28T09:47:47;85177.60;;;19.88
76394;BMP180;65216;51.090;-115.352;2023-02-28T09:51:00;85178.80;;;19.90
76394;BMP180;65216;51.090;-115.352;2023-02-28T09:53:36;85177.20;;;19.88
76394;BMP180;65216;51.090;-115.352;2023-02-28T09:56:10;85171.80;;;19.82
76394;BMP180;65216;51.090;-115.352;2023-02-28T09:58:42;85168.20;;;19.80
76394;BMP180;65216;51.090;-115.352;2023-02-28T10:01:57;85169.00;;;19.80
76394;BMP180;65216;51.090;-115.352;2023-02-28T10:04:47;85168.60;;;19.80
76394;BMP180;65216;51.090;-115.352;2023-02-28T10:10:45;85166.00;;;19.80
76394;BMP180;65216;51.090;-115.352;2023-02-28T10:16:43;85160.00;;;19.80
76394;BMP180;65216;51.090;-115.352;2023-02-28T10:19:50;85156.20;;;19.80
76394;BMP180;65216;51.090;-115.352;2023-02-28T10:22:36;85154.40;;;19.80
76394;BMP180;65216;51.090;-115.352;2023-02-28T10:25:24;85151.20;;;19.80
76394;BMP180;65216;51.090;-115.352;2023-02-28T10:28:15;85151.40;;;19.80
76394;BMP180;65216;51.090;-115.352;2023-02-28T10:30:51;85154.40;;;19.80
76394;BMP180;65216;51.090;-115.352;2023-02-28T10:33:29;85152.60;;;19.80
76394;BMP180;65216;51.090;-115.352;2023-02-28T10:35:58;85149.00;;;19.80
76394;BMP180;65216;51.090;-115.352;2023-02-28T10:38:34;85150.60;;;19.80
76394;BMP180;65216;51.090;-115.352;2023-02-28T10:41:15;85148.60;;;19.80
76394;BMP180;65216;51.090;-115.352;2023-02-28T10:43:44;85146.00;;;19.80
76394;BMP180;65216;51.090;-115.352;2023-02-28T10:46:34;85144.00;;;19.80
76394;BMP180;65216;51.090;-115.352;2023-02-28T10:49:07;85142.00;;;19.78
76394;BMP180;65216;51.090;-115.352;2023-02-28T10:51:41;85142.00;;;19.80
76394;BMP180;65216;51.090;-115.352;2023-02-28T10:54:40;85136.00;;;19.74
76394;BMP180;65216;51.090;-115.352;2023-02-28T10:57:24;85134.80;;;19.80
76394;BMP180;65216;51.090;-115.352;2023-02-28T11:00:05;85133.80;;;19.74
76394;BMP180;65216;51.090;-115.352;2023-02-28T11:02:37;85139.00;;;19.78
76394;BMP180;65216;51.090;-115.352;2023-02-28T11:05:32;85137.00;;;19.72
76394;BMP180;65216;51.090;-115.352;2023-02-28T11:08:15;85133.40;;;19.74
76394;BMP180;65216;51.090;-115.352;2023-02-28T11:10:58;85137.60;;;19.74
76394;BMP180;65216;51.090;-115.352;2023-02-28T11:13:37;85138.00;;;19.76
76394;BMP180;65216;51.090;-115.352;2023-02-28T11:16:11;85132.00;;;19.78
76394;BMP180;65216;51.090;-115.352;2023-02-28T11:18:54;85133.80;;;19.80
76394;BMP180;65216;51.090;-115.352;2023-02-28T11:21:31;85134.00;;;19.80
76394;BMP180;65216;51.090;-115.352;2023-02-28T11:24:35;85136.00;;;19.70
76394;BMP180;65216;51.090;-115.352;2023-02-28T11:27:10;85139.20;;;19.76
76394;BMP180;65216;51.090;-115.352;2023-02-28T11:29:49;85136.00;;;19.78
76394;BMP180;65216;51.090;-115.352;2023-02-28T11:32:23;85135.60;;;19.72
76394;BMP180;65216;51.090;-115.352;2023-02-28T11:37:44;85132.60;;;19.70
76394;BMP180;65216;51.090;-115.352;2023-02-28T11:40:21;85128.60;;;19.70
76394;BMP180;65216;51.090;-115.352;2023-02-28T11:49:31;85128.20;;;19.62
76394;BMP180;65216;51.090;-115.352;2023-02-28T11:58:25;85133.00;;;19.60
76394;BMP180;65216;51.090;-115.352;2023-02-28T12:06:57;85132.20;;;19.58
76394;BMP180;65216;51.090;-115.352;2023-02-28T12:10:20;85133.40;;;19.60
76394;BMP180;65216;51.090;-115.352;2023-02-28T12:24:28;85130.00;;;19.50
76394;BMP180;65216;51.090;-115.352;2023-02-28T12:27:05;85131.40;;;19.50
76394;BMP180;65216;51.090;-115.352;2023-02-28T12:29:49;85135.60;;;19.50
76394;BMP180;65216;51.090;-115.352;2023-02-28T12:35:16;85137.20;;;19.50
76394;BMP180;65216;51.090;-115.352;2023-02-28T12:38:41;85137.00;;;19.50
76394;BMP180;65216;51.090;-115.352;2023-02-28T12:44:46;85139.80;;;19.44
76394;BMP180;65216;51.090;-115.352;2023-02-28T12:47:22;85140.60;;;19.44
76394;BMP180;65216;51.090;-115.352;2023-02-28T12:50:11;85141.60;;;19.40
76394;BMP180;65216;51.090;-115.352;2023-02-28T12:53:04;85138.40;;;19.40
76394;BMP180;65216;51.090;-115.352;2023-02-28T12:55:50;85145.00;;;19.40
76394;BMP180;65216;51.090;-115.352;2023-02-28T13:01:22;85143.60;;;19.40
76394;BMP180;65216;51.090;-115.352;2023-02-28T13:04:33;85149.40;;;19.40
76394;BMP180;65216;51.090;-115.352;2023-02-28T13:09:58;85145.00;;;19.40
76394;BMP180;65216;51.090;-115.352;2023-02-28T13:12:27;85141.40;;;19.40
76394;BMP180;65216;51.090;-115.352;2023-02-28T13:17:40;85143.00;;;19.40
76394;BMP180;65216;51.090;-115.352;2023-02-28T13:20:24;85143.40;;;19.40
76394;BMP180;65216;51.090;-115.352;2023-02-28T13:22:55;85143.60;;;19.40
76394;BMP180;65216;51.090;-115.352;2023-02-28T13:28:10;85147.80;;;19.40
76394;BMP180;65216;51.090;-115.352;2023-02-28T13:36:29;85145.80;;;19.34
76394;BMP180;65216;51.090;-115.352;2023-02-28T13:38:59;85148.20;;;19.30
76394;BMP180;65216;51.090;-115.352;2023-02-28T13:49:31;85155.40;;;19.38
76394;BMP180;65216;51.090;-115.352;2023-02-28T13:58:47;85145.60;;;19.40
76394;BMP180;65216;51.090;-115.352;2023-02-28T14:02:33;85152.80;;;19.40
76394;BMP180;65216;51.090;-115.352;2023-02-28T14:05:00;85149.60;;;19.40
76394;BMP180;65216;51.090;-115.352;2023-02-28T14:07:44;85151.00;;;19.40
76394;BMP180;65216;51.090;-115.352;2023-02-28T14:10:41;85158.00;;;19.40
76394;BMP180;65216;51.090;-115.352;2023-02-28T14:16:08;85154.80;;;19.46
76394;BMP180;65216;51.090;-115.352;2023-02-28T14:18:47;85158.60;;;19.50
76394;BMP180;65216;51.090;-115.352;2023-02-28T14:21:43;85153.60;;;19.50
76394;BMP180;65216;51.090;-115.352;2023-02-28T14:27:43;85161.60;;;19.50
76394;BMP180;65216;51.090;-115.352;2023-02-28T14:30:57;85162.20;;;19.50
76394;BMP180;65216;51.090;-115.352;2023-02-28T14:36:43;85163.20;;;19.50
76394;BMP180;65216;51.090;-115.352;2023-02-28T14:39:20;85161.00;;;19.50
76394;BMP180;65216;51.090;-115.352;2023-02-28T14:41:55;85165.00;;;19.50
76394;BMP180;65216;51.090;-115.352;2023-02-28T14:44:26;85165.20;;;19.54
76394;BMP180;65216;51.090;-115.352;2023-02-28T14:47:01;85163.20;;;19.54
76394;BMP180;65216;51.090;-115.352;2023-02-28T14:49:45;85166.80;;;19.58
76394;BMP180;65216;51.090;-115.352;2023-02-28T14:52:21;85166.20;;;19.60
76394;BMP180;65216;51.090;-115.352;2023-02-28T14:55:10;85157.20;;;19.60
76394;BMP180;65216;51.090;-115.352;2023-02-28T14:57:58;85168.00;;;19.60
76394;BMP180;65216;51.090;-115.352;2023-02-28T15:00:29;85163.20;;;19.60
76394;BMP180;65216;51.090;-115.352;2023-02-28T15:02:59;85168.20;;;19.60
76394;BMP180;65216;51.090;-115.352;2023-02-28T15:05:34;85171.00;;;19.60
76394;BMP180;65216;51.090;-115.352;2023-02-28T15:08:15;85170.20;;;19.60
76394;BMP180;65216;51.090;-115.352;2023-02-28T15:11:00;85172.00;;;19.60
76394;BMP180;65216;51.090;-115.352;2023-02-28T15:13:47;85174.00;;;19.60
76394;BMP180;65216;51.090;-115.352;2023-02-28T15:16:19;85174.80;;;19.60
76394;BMP180;65216;51.090;-115.352;2023-02-28T15:19:01;85176.20;;;19.60
76394;BMP180;65216;51.090;-115.352;2023-02-28T15:21:42;85172.40;;;19.60
76394;BMP180;65216;51.090;-115.352;2023-02-28T15:24:20;85174.00;;;19.60
76394;BMP180;65216;51.090;-115.352;2023-02-28T15:26:58;85181.40;;;19.60
76394;BMP180;65216;51.090;-115.352;2023-02-28T15:29:31;85186.80;;;19.60
76394;BMP180;65216;51.090;-115.352;2023-02-28T15:32:16;85185.00;;;19.60
76394;BMP180;65216;51.090;-115.352;2023-02-28T15:34:49;85186.60;;;19.60
76394;BMP180;65216;51.090;-115.352;2023-02-28T15:37:40;85187.20;;;19.60
76394;BMP180;65216;51.090;-115.352;2023-02-28T15:40:38;85191.80;;;19.60
76394;BMP180;65216;51.090;-115.352;2023-02-28T15:43:18;85194.00;;;19.60
76394;BMP180;65216;51.090;-115.352;2023-02-28T15:45:52;85189.80;;;19.60
76394;BMP180;65216;51.090;-115.352;2023-02-28T15:48:32;85195.80;;;19.60
76394;BMP180;65216;51.090;-115.352;2023-02-28T15:51:09;85193.80;;;19.64
76394;BMP180;65216;51.090;-115.352;2023-02-28T15:54:21;85194.60;;;19.62
76394;BMP180;65216;51.090;-115.352;2023-02-28T15:56:55;85197.20;;;19.68
76394;BMP180;65216;51.090;-115.352;2023-02-28T15:59:30;85195.00;;;19.70
76394;BMP180;65216;51.090;-115.352;2023-02-28T16:02:19;85206.20;;;19.70
76394;BMP180;65216;51.090;-115.352;2023-02-28T16:07:41;85213.40;;;19.70
76394;BMP180;65216;51.090;-115.352;2023-02-28T16:10:12;85205.60;;;19.70
76394;BMP180;65216;51.090;-115.352;2023-02-28T16:12:43;85209.80;;;19.70
76394;BMP180;65216;51.090;-115.352;2023-02-28T16:15:22;85213.00;;;19.70
76394;BMP180;65216;51.090;-115.352;2023-02-28T16:17:50;85210.80;;;19.70